TimePST,TemperatureF,Dew PointF,Humidity,Sea Level PressureIn,VisibilityMPH,Wind Direction,Wind SpeedMPH,Gust SpeedMPH,PrecipitationIn,Events,Conditions,WindDirDegrees,DateUTC
12:52 AM,48.9,30.0,48,29.92,10.0,North,4.6,-,N/A,,Clear,10,2014-02-24 08:52:00
1:52 AM,52.0,28.9,41,29.91,10.0,NNW,4.6,-,N/A,,Clear,330,2014-02-24 09:52:00
2:52 AM,45.0,28.9,53,29.90,10.0,Calm,Calm,-,N/A,,Clear,0,2014-02-24 10:52:00
3:52 AM,48.9,28.0,44,29.90,10.0,North,3.5,-,N/A,,Clear,350,2014-02-24 11:52:00
4:52 AM,41.0,30.0,65,29.91,10.0,Calm,Calm,-,N/A,,Clear,0,2014-02-24 12:52:00
5:52 AM,46.0,30.9,56,29.94,10.0,SSE,4.6,-,N/A,,Clear,150,2014-02-24 13:52:00
6:52 AM,45.0,33.1,63,29.95,10.0,WNW,5.8,-,N/A,,Clear,300,2014-02-24 14:52:00
7:52 AM,57.0,37.0,47,29.97,10.0,NNE,3.5,-,N/A,,Clear,20,2014-02-24 15:52:00
8:52 AM,64.9,42.1,43,29.99,10.0,Calm,Calm,-,N/A,,Clear,0,2014-02-24 16:52:00
9:52 AM,69.1,39.0,33,29.99,10.0,Variable,3.5,-,N/A,,Clear,0,2014-02-24 17:52:00
10:52 AM,73.9,36.0,25,29.98,10.0,Variable,4.6,-,N/A,,Clear,0,2014-02-24 18:52:00
11:52 AM,77.0,33.1,20,29.94,10.0,Calm,Calm,-,N/A,,Clear,0,2014-02-24 19:52:00
12:52 PM,80.1,35.1,20,29.91,10.0,North,-9999.0,-,N/A,,Clear,0,2014-02-24 20:52:00
1:52 PM,82.9,28.9,14,29.88,10.0,SE,10.4,-,N/A,,Clear,130,2014-02-24 21:52:00
2:52 PM,82.0,28.9,14,29.86,10.0,SE,6.9,-,N/A,,Clear,130,2014-02-24 22:52:00
3:52 PM,81.0,26.1,13,29.86,10.0,SE,8.1,-,N/A,,Clear,140,2014-02-24 23:52:00
4:52 PM,78.1,25.0,14,29.86,10.0,SSE,4.6,-,N/A,,Clear,150,2014-02-25 00:52:00
5:52 PM,66.0,28.0,24,29.87,10.0,South,3.5,-,N/A,,Clear,170,2014-02-25 01:52:00
6:52 PM,60.1,33.1,36,29.88,10.0,SSW,3.5,-,N/A,,Clear,200,2014-02-25 02:52:00
7:52 PM,57.0,33.1,40,29.90,10.0,Calm,Calm,-,N/A,,Clear,0,2014-02-25 03:52:00
8:52 PM,55.9,35.1,45,29.91,10.0,NNE,3.5,-,N/A,,Clear,30,2014-02-25 04:52:00
9:52 PM,55.0,37.0,51,29.92,10.0,North,5.8,-,N/A,,Clear,360,2014-02-25 05:52:00
10:52 PM,54.0,35.1,49,29.93,10.0,NNW,4.6,-,N/A,,Clear,340,2014-02-25 06:52:00
11:52 PM,51.1,35.1,54,29.92,10.0,North,3.5,-,N/A,,Clear,350,2014-02-25 07:52:00